الصفحة الرئيسية
METAR-TAF:

METAR-TAF

مطار :

ليك هافاسو سيتي, أريزونا, الولايات المتحدة

دائرة عرض: 34-34-16N, خط طول: 114-21-30W, ارتفاع: 239 متر

مراقبة الطقس الحالي

تاريخ ووقت الإصدار 16 دقيقة قبل الساعة 21:15UTC
ريح 5 عقدة من الجنوب/الجنوب الغربي
درجة الحرارة 27°درجة مئوية
الرطوبة 17%
ضغط 1015 hPa
الرؤية: 16.1 كم
سماء صافية

METAR: KHII 182115Z AUTO 21005KT 10SM CLR 27/00 A2996 RMK AO2

زمن: 14:31 (21:31 UTC)


TAF: مفقودة

أرصاد الطقس والتوقعات من أكثر من 4000 مطار (تقارير الطقس للمطار METAR والتنبؤ بالطقس بالمطارTAF).

المحطات المتاحة هي النقط الصفراء والحمراء على الخريطة.

حرك المؤشر فوق النقطة لمعرفة اسم المحطة.

ثم انقر لمعرفة أرصاد وتوقعات الطقس.

لتغيير الخارطة: اضغط على الأزرار الخضراء مع رمز الصليب الأسود للتكبير. على الزر الأخضر مع شرطة للتصغير، أو على الأسهم الخضراء للخرائط المجاورة.


METAR-TAF: